Time;durP1;ratioP1;P1;durP2;ratioP2;P2;SDS_P1;SDS_P2;PMS_P1;PMS_P2;Temp;Humidity;BMP_temperature;BMP_pressure;BME280_temperature;BME280_humidity;BME280_pressure;Samples;Min_cycle;Max_cycle;Signal;HPM_P1;HPM_P2
2022/03/14 00:01:18;;;;;;;51.10;21.20;;;;;;;1.69;40.00;101244.14;106595;1268;23336;-77
2022/03/14 00:03:50;;;;;;;51.00;20.20;;;;;;;1.67;40.19;101244.14;106530;1268;23397;-75
2022/03/14 00:06:22;;;;;;;51.40;20.10;;;;;;;1.66;40.32;101243.74;106606;1268;25359;-76
2022/03/14 00:08:55;;;;;;;49.80;20.90;;;;;;;1.62;40.19;101245.40;106514;1268;26973;-76
2022/03/14 00:11:28;;;;;;;46.80;19.80;;;;;;;1.58;40.32;101246.02;106600;1268;22556;-76
2022/03/14 00:14:01;;;;;;;48.70;20.90;;;;;;;1.53;40.57;101246.97;106819;1268;24380;-75
2022/03/14 00:16:36;;;;;;;49.50;18.80;;;;;;;1.49;40.68;101245.16;106606;1268;25397;-75
2022/03/14 00:19:08;;;;;;;47.40;20.50;;;;;;;1.44;40.85;101249.88;106539;1268;22732;-76
2022/03/14 00:21:40;;;;;;;49.30;21.10;;;;;;;1.40;40.99;101248.86;106558;1268;23322;-76
2022/03/14 00:24:12;;;;;;;52.00;21.20;;;;;;;1.39;41.07;101249.40;106534;1268;24281;-76
2022/03/14 00:26:44;;;;;;;47.20;19.60;;;;;;;1.37;41.16;101252.87;106584;1268;22730;-76
2022/03/14 00:29:18;;;;;;;49.00;21.00;;;;;;;1.33;41.19;101245.00;106511;1268;25486;-77
2022/03/14 00:31:50;;;;;;;53.10;21.40;;;;;;;1.31;41.26;101246.18;106567;1268;22580;-76
2022/03/14 00:34:21;;;;;;;53.80;22.10;;;;;;;1.27;41.35;101248.45;106522;1268;26323;-76
2022/03/14 00:36:52;;;;;;;53.80;21.50;;;;;;;1.24;41.35;101247.73;106523;1268;22606;-77
2022/03/14 00:39:24;;;;;;;50.90;22.60;;;;;;;1.21;41.72;101244.44;106650;1268;22544;-77
2022/03/14 00:41:55;;;;;;;53.40;22.10;;;;;;;1.18;41.65;101244.42;106539;1268;23246;-76
2022/03/14 00:44:26;;;;;;;47.70;20.80;;;;;;;1.14;41.66;101246.48;106513;1268;25487;-76
2022/03/14 00:46:57;;;;;;;51.60;22.90;;;;;;;1.11;41.77;101247.49;106578;1268;22742;-76
2022/03/14 00:49:28;;;;;;;57.30;25.90;;;;;;;1.07;41.91;101246.62;106606;1268;26764;-76
2022/03/14 00:51:59;;;;;;;60.70;27.30;;;;;;;1.05;42.10;101250.15;106649;1268;22548;-76
2022/03/14 00:54:32;;;;;;;60.90;28.20;;;;;;;1.04;42.19;101248.02;106550;1268;24238;-76
2022/03/14 00:57:03;;;;;;;63.70;27.40;;;;;;;1.02;42.20;101254.86;106519;1268;25624;-76
2022/03/14 00:59:35;;;;;;;66.00;27.60;;;;;;;0.99;42.21;101257.92;106558;1268;25459;-77
2022/03/14 01:02:07;;;;;;;61.60;27.20;;;;;;;0.96;42.38;101260.83;106711;1268;22516;-76
2022/03/14 01:04:38;;;;;;;65.10;27.70;;;;;;;0.93;42.65;101261.52;108861;1268;22567;-76
2022/03/14 01:07:09;;;;;;;81.10;36.20;;;;;;;0.91;42.62;101264.17;106515;1271;22694;-76
2022/03/14 01:09:41;;;;;;;71.00;29.90;;;;;;;0.87;42.57;101266.52;106542;1268;25444;-75
2022/03/14 01:12:13;;;;;;;74.60;31.20;;;;;;;0.78;42.48;101269.02;106578;1268;22570;-75
2022/03/14 01:14:44;;;;;;;67.60;29.30;;;;;;;0.71;42.86;101267.27;106511;1271;25559;-75
2022/03/14 01:17:16;;;;;;;75.50;31.30;;;;;;;0.69;43.05;101266.63;106515;1268;22543;-76
2022/03/14 01:19:46;;;;;;;66.10;30.40;;;;;;;0.66;43.16;101267.95;106533;1268;25511;-76
2022/03/14 01:22:18;;;;;;;73.90;30.70;;;;;;;0.61;43.13;101269.66;106629;1268;25555;-75
2022/03/14 01:24:49;;;;;;;65.10;27.40;;;;;;;0.54;43.15;101271.90;106542;1268;25740;-76
2022/03/14 01:27:21;;;;;;;65.40;28.60;;;;;;;0.44;43.19;101278.05;106644;1268;25483;-75
2022/03/14 01:29:52;;;;;;;58.40;26.30;;;;;;;0.35;43.45;101277.86;106529;1268;22803;-75
2022/03/14 01:32:23;;;;;;;57.30;24.70;;;;;;;0.31;43.72;101274.08;106573;1268;22611;-75
2022/03/14 01:34:54;;;;;;;60.80;25.40;;;;;;;0.29;43.73;101273.20;106646;1268;22629;-75
2022/03/14 01:37:26;;;;;;;61.70;26.60;;;;;;;0.25;43.69;101269.48;106498;1268;25548;-76
2022/03/14 01:39:57;;;;;;;62.10;25.80;;;;;;;0.18;43.74;101269.92;106613;1268;22690;-77
2022/03/14 01:42:28;;;;;;;57.00;24.50;;;;;;;0.12;43.84;101273.09;106540;1268;24448;-76
2022/03/14 01:45:00;;;;;;;64.00;25.40;;;;;;;0.05;43.95;101276.67;106500;1268;22588;-76
2022/03/14 01:47:34;;;;;;;58.90;25.50;;;;;;;0.02;44.23;101280.65;106556;1268;22686;-76
2022/03/14 01:50:06;;;;;;;63.00;26.20;;;;;;;-0.02;44.19;101282.04;106587;1268;22666;-76
2022/03/14 01:52:37;;;;;;;60.30;24.80;;;;;;;-0.05;44.40;101280.84;106597;1268;22749;-76
2022/03/14 01:55:11;;;;;;;52.80;23.50;;;;;;;-0.06;44.60;101279.88;106532;1268;22740;-76
2022/03/14 01:57:43;;;;;;;58.20;26.00;;;;;;;-0.07;44.72;101279.17;106684;1268;22612;-75
2022/03/14 02:00:15;;;;;;;66.80;25.10;;;;;;;-0.08;44.69;101276.58;106662;1268;22668;-76
2022/03/14 02:02:47;;;;;;;60.00;26.70;;;;;;;-0.11;44.67;101273.27;106550;1268;23419;-76
2022/03/14 02:05:19;;;;;;;63.00;26.10;;;;;;;-0.14;44.95;101279.92;106603;1268;22688;-76
2022/03/14 02:07:50;;;;;;;56.10;25.30;;;;;;;-0.18;45.05;101281.45;106538;1268;22606;-76
2022/03/14 02:10:22;;;;;;;66.80;28.20;;;;;;;-0.21;45.09;101275.00;106599;1268;22741;-75
2022/03/14 02:12:54;;;;;;;63.30;26.40;;;;;;;-0.24;45.14;101277.41;106598;1268;24289;-76
2022/03/14 02:15:26;;;;;;;67.20;30.00;;;;;;;-0.32;45.36;101279.23;106611;1268;22644;-76
2022/03/14 02:17:57;;;;;;;64.50;25.90;;;;;;;-0.37;45.41;101283.27;106505;1268;24286;-76
2022/03/14 02:20:28;;;;;;;70.00;28.90;;;;;;;-0.40;45.43;101282.69;106507;1271;22616;-76
2022/03/14 02:23:00;;;;;;;65.00;27.70;;;;;;;-0.44;45.57;101281.16;106584;1268;22759;-76
2022/03/14 02:25:33;;;;;;;59.40;23.30;;;;;;;-0.47;45.75;101280.20;106576;1268;24347;-77
2022/03/14 02:28:04;;;;;;;56.80;25.20;;;;;;;-0.48;45.88;101280.27;106538;1274;22718;-76
2022/03/14 02:30:35;;;;;;;64.90;27.00;;;;;;;-0.51;45.87;101283.06;106557;1268;22761;-76
2022/03/14 02:33:08;;;;;;;59.50;26.90;;;;;;;-0.53;45.90;101280.70;106449;1271;23288;-76
2022/03/14 02:35:41;;;;;;;66.70;27.20;;;;;;;-0.54;46.10;101282.10;106564;1268;22614;-76
2022/03/14 02:38:14;;;;;;;67.40;27.20;;;;;;;-0.56;46.27;101278.71;106501;1271;23572;-77
2022/03/14 02:40:46;;;;;;;65.30;27.90;;;;;;;-0.58;46.26;101276.81;106640;1268;22646;-77
2022/03/14 02:43:22;;;;;;;63.30;29.10;;;;;;;-0.60;46.34;101275.70;106359;1271;232209;-76
2022/03/14 02:45:54;;;;;;;63.70;27.40;;;;;;;-0.62;46.34;101280.30;106496;1268;22647;-76
2022/03/14 02:48:26;;;;;;;67.60;27.90;;;;;;;-0.64;46.67;101285.86;106485;1268;22546;-76
2022/03/14 02:50:58;;;;;;;69.60;28.10;;;;;;;-0.66;46.65;101284.81;106498;1271;24340;-76
2022/03/14 02:53:29;;;;;;;63.60;28.60;;;;;;;-0.68;46.82;101283.16;106471;1268;22602;-76
2022/03/14 02:56:00;;;;;;;63.30;26.20;;;;;;;-0.71;47.03;101284.45;106531;1268;22774;-76
2022/03/14 02:58:32;;;;;;;66.30;27.50;;;;;;;-0.80;47.19;101286.39;106503;1269;23732;-76
2022/03/14 03:01:04;;;;;;;64.40;26.10;;;;;;;-0.86;47.19;101287.21;106551;1268;22759;-76
2022/03/14 03:03:35;;;;;;;62.00;25.60;;;;;;;-0.90;47.39;101286.55;106503;1269;23876;-76
2022/03/14 03:06:07;;;;;;;65.30;27.90;;;;;;;-0.90;47.32;101283.09;106519;1268;22760;-76
2022/03/14 03:08:39;;;;;;;61.50;26.50;;;;;;;-0.92;47.41;101286.30;106497;1268;22554;-76
2022/03/14 03:11:10;;;;;;;60.80;26.00;;;;;;;-0.94;47.47;101285.71;106502;1268;24449;-80
2022/03/14 03:13:43;;;;;;;55.90;23.50;;;;;;;-0.99;47.64;101283.16;106537;1268;25494;-76
2022/03/14 03:16:15;;;;;;;65.60;26.00;;;;;;;-1.05;47.71;101289.20;106565;1268;22710;-76
2022/03/14 03:18:47;;;;;;;67.50;26.00;;;;;;;-1.12;47.69;101293.50;106529;1268;25555;-76
2022/03/14 03:21:18;;;;;;;63.30;25.80;;;;;;;-1.17;47.80;101299.23;106487;1268;22717;-75
2022/03/14 03:23:51;;;;;;;60.00;25.00;;;;;;;-1.21;47.83;101299.52;106614;1268;25608;-76
2022/03/14 03:26:22;;;;;;;61.60;25.30;;;;;;;-1.22;47.80;101304.59;106594;1268;23586;-76
2022/03/14 03:28:53;;;;;;;66.00;26.90;;;;;;;-1.23;47.99;101306.84;106524;1268;24236;-76
2022/03/14 03:31:28;;;;;;;70.20;28.00;;;;;;;-1.25;48.00;101307.69;106528;1272;24447;-76
2022/03/14 03:34:00;;;;;;;67.00;28.10;;;;;;;-1.27;47.93;101306.55;106649;1268;24357;-76
2022/03/14 03:36:32;;;;;;;63.30;26.90;;;;;;;-1.30;48.13;101309.65;106562;1268;22706;-76
2022/03/14 03:39:04;;;;;;;65.00;26.60;;;;;;;-1.33;48.18;101310.87;106558;1268;22682;-76
2022/03/14 03:41:35;;;;;;;71.50;28.80;;;;;;;-1.38;48.42;101313.31;106525;1268;24831;-76
2022/03/14 03:44:07;;;;;;;68.50;28.30;;;;;;;-1.43;48.54;101318.81;106593;1268;25550;-76
2022/03/14 03:46:38;;;;;;;74.70;29.90;;;;;;;-1.46;48.53;101314.23;106645;1268;22777;-75
2022/03/14 03:49:09;;;;;;;70.10;27.00;;;;;;;-1.51;48.82;101319.86;106508;1268;22643;-76
2022/03/14 03:51:40;;;;;;;65.60;28.00;;;;;;;-1.58;48.79;101321.17;106485;1270;22538;-75
2022/03/14 03:54:12;;;;;;;63.10;28.20;;;;;;;-1.59;48.95;101319.37;106520;1268;22705;-76
2022/03/14 03:56:43;;;;;;;79.10;29.90;;;;;;;-1.60;48.83;101315.77;106505;1268;24449;-76
2022/03/14 03:59:14;;;;;;;67.30;28.00;;;;;;;-1.63;49.04;101320.65;106560;1268;25677;-76
2022/03/14 04:01:46;;;;;;;68.20;28.30;;;;;;;-1.67;49.11;101313.33;106592;1268;24302;-75
2022/03/14 04:04:17;;;;;;;64.30;30.20;;;;;;;-1.69;49.12;101318.92;106512;1268;22797;-76
2022/03/14 04:06:53;;;;;;;63.40;27.70;;;;;;;-1.71;49.18;101324.20;106472;1268;22723;-76
2022/03/14 04:09:24;;;;;;;68.50;28.50;;;;;;;-1.72;49.19;101328.58;106575;1268;22598;-75
2022/03/14 04:11:55;;;;;;;66.90;28.70;;;;;;;-1.73;49.36;101324.73;106506;1268;24246;-74
2022/03/14 04:14:26;;;;;;;66.90;29.10;;;;;;;-1.74;49.51;101329.56;106478;1268;23346;-76
2022/03/14 04:17:01;;;;;;;71.50;29.00;;;;;;;-1.76;49.77;101327.19;106543;1268;22700;-75
2022/03/14 04:19:33;;;;;;;71.30;29.50;;;;;;;-1.83;49.88;101324.13;106712;1268;22722;-75
2022/03/14 04:22:04;;;;;;;75.40;30.10;;;;;;;-1.84;50.00;101326.53;106463;1271;25488;-75
2022/03/14 04:24:36;;;;;;;68.90;27.20;;;;;;;-1.84;50.20;101322.07;106492;1268;22661;-75
2022/03/14 04:27:08;;;;;;;71.60;27.80;;;;;;;-1.86;50.16;101319.92;106632;1268;22760;-75
2022/03/14 04:29:40;;;;;;;68.40;27.60;;;;;;;-1.87;50.31;101315.39;106589;1268;24239;-75
2022/03/14 04:32:11;;;;;;;67.30;27.80;;;;;;;-1.88;50.44;101317.02;106547;1268;25466;-75
2022/03/14 04:34:42;;;;;;;66.60;27.60;;;;;;;-1.91;50.60;101318.30;106679;1268;24479;-75
2022/03/14 04:37:15;;;;;;;60.90;26.10;;;;;;;-1.92;50.77;101319.28;106733;1268;22724;-76
2022/03/14 04:39:47;;;;;;;61.40;27.40;;;;;;;-1.96;50.76;101319.86;106681;1268;22709;-76
2022/03/14 04:42:20;;;;;;;65.60;27.20;;;;;;;-1.98;50.85;101320.61;106530;1268;22618;-76
2022/03/14 04:44:54;;;;;;;63.30;27.20;;;;;;;-1.99;50.90;101324.73;106604;1267;22596;-75
2022/03/14 04:47:26;;;;;;;71.50;29.30;;;;;;;-2.00;51.06;101323.86;106564;1268;22767;-75
2022/03/14 04:49:57;;;;;;;70.10;29.80;;;;;;;-2.02;51.01;101326.33;106569;1268;22769;-74
2022/03/14 04:52:30;;;;;;;74.00;30.80;;;;;;;-2.05;51.29;101329.27;106528;1269;22764;-75
2022/03/14 04:55:02;;;;;;;70.20;29.30;;;;;;;-2.08;51.23;101334.67;106588;1268;24374;-75
2022/03/14 04:57:33;;;;;;;70.80;29.50;;;;;;;-2.11;51.55;101346.59;106670;1268;23686;-75
2022/03/14 05:00:08;;;;;;;70.80;28.50;;;;;;;-2.18;51.59;101352.27;106716;1268;25595;-79
2022/03/14 05:02:39;;;;;;;67.60;28.10;;;;;;;-2.24;51.83;101357.16;106972;1268;22770;-79
2022/03/14 05:05:13;;;;;;;68.20;28.70;;;;;;;-2.31;52.02;101359.46;106789;1268;25419;-78
2022/03/14 05:07:44;;;;;;;73.80;30.70;;;;;;;-2.39;52.39;101361.69;106885;1268;22771;-80
2022/03/14 05:10:16;;;;;;;69.40;28.50;;;;;;;-2.43;52.56;101361.68;106903;1268;23650;-79
2022/03/14 05:12:47;;;;;;;70.20;26.90;;;;;;;-2.49;52.59;101362.98;106886;1268;25485;-79
2022/03/14 05:15:19;;;;;;;67.20;29.30;;;;;;;-2.50;52.62;101363.51;106890;1268;25436;-78
2022/03/14 05:17:51;;;;;;;70.80;29.50;;;;;;;-2.52;52.68;101368.95;107069;1268;24176;-79
2022/03/14 05:20:22;;;;;;;62.80;27.20;;;;;;;-2.56;52.64;101370.14;107002;1268;22689;-79
2022/03/14 05:22:54;;;;;;;67.10;26.90;;;;;;;-2.55;52.94;101373.11;106840;1268;24287;-77
2022/03/14 05:25:26;;;;;;;67.70;27.20;;;;;;;-2.55;52.67;101376.86;106796;1268;22728;-76
2022/03/14 05:27:59;;;;;;;60.40;27.20;;;;;;;-2.54;52.72;101376.42;106797;1268;23588;-77
2022/03/14 05:30:30;;;;;;;69.80;28.90;;;;;;;-2.53;52.61;101375.89;106965;1268;22843;-79
2022/03/14 05:33:01;;;;;;;75.00;30.50;;;;;;;-2.51;52.69;101375.21;107234;1268;22642;-77
2022/03/14 05:35:33;;;;;;;86.30;34.70;;;;;;;-2.50;52.99;101376.65;107400;1268;22774;-77
2022/03/14 05:38:09;;;;;;;78.90;34.20;;;;;;;-2.50;53.12;101380.30;107456;1268;22780;-78
2022/03/14 05:40:40;;;;;;;83.30;34.00;;;;;;;-2.50;52.94;101381.39;106865;1268;22794;-78
2022/03/14 05:43:13;;;;;;;83.40;35.60;;;;;;;-2.50;53.14;101381.02;106772;1271;22972;-78
2022/03/14 05:45:44;;;;;;;93.00;36.80;;;;;;;-2.54;53.55;101387.29;106745;1268;22765;-76
2022/03/14 05:48:16;;;;;;;90.50;37.10;;;;;;;-2.58;53.59;101390.32;106860;1268;23265;-78
2022/03/14 05:50:52;;;;;;;83.00;34.00;;;;;;;-2.62;54.02;101397.20;106966;1268;25631;-77
2022/03/14 05:53:25;;;;;;;88.30;37.10;;;;;;;-2.65;53.83;101404.32;106964;1268;23566;-76
2022/03/14 05:55:57;;;;;;;88.20;36.90;;;;;;;-2.67;54.11;101409.20;106692;1268;22619;-77
2022/03/14 05:58:30;;;;;;;96.80;38.70;;;;;;;-2.68;54.21;101406.52;106854;1268;25803;-76
2022/03/14 06:01:02;;;;;;;94.90;38.90;;;;;;;-2.69;54.32;101409.95;106779;1268;25581;-76
2022/03/14 06:03:35;;;;;;;88.50;35.50;;;;;;;-2.68;54.36;101415.41;106987;1268;22788;-76
2022/03/14 06:06:11;;;;;;;95.60;37.00;;;;;;;-2.68;54.22;101412.86;106920;1268;22678;-76
2022/03/14 06:08:42;;;;;;;92.90;36.40;;;;;;;-2.67;54.69;101414.99;106761;1268;24726;-76
2022/03/14 06:11:13;;;;;;;82.40;36.90;;;;;;;-2.68;54.97;101413.26;106776;1268;22649;-75
2022/03/14 06:13:45;;;;;;;88.80;34.00;;;;;;;-2.67;55.06;101416.85;106693;1268;22689;-76
2022/03/14 06:16:21;;;;;;;85.40;33.50;;;;;;;-2.64;55.07;101420.28;106861;1268;23036;-76
2022/03/14 06:18:52;;;;;;;85.30;33.40;;;;;;;-2.61;55.27;101422.36;106916;1268;25633;-75
2022/03/14 06:21:24;;;;;;;80.90;35.50;;;;;;;-2.59;55.33;101420.68;106708;1268;26870;-75
2022/03/14 06:23:55;;;;;;;79.90;30.90;;;;;;;-2.54;55.57;101423.35;106729;1268;22771;-76
2022/03/14 06:26:26;;;;;;;73.20;31.60;;;;;;;-2.51;55.62;101424.05;106677;1268;25762;-76
2022/03/14 06:28:57;;;;;;;84.30;32.20;;;;;;;-2.46;55.47;101421.79;106778;1268;24412;-76
2022/03/14 06:31:31;;;;;;;71.30;31.30;;;;;;;-2.41;55.68;101423.36;106879;1268;22559;-76
2022/03/14 06:34:02;;;;;;;83.00;32.80;;;;;;;-2.36;55.80;101417.36;106818;1268;24239;-76
2022/03/14 06:36:34;;;;;;;68.30;29.60;;;;;;;-2.28;55.89;101423.61;106830;1268;25476;-75
2022/03/14 06:39:05;;;;;;;74.30;29.20;;;;;;;-2.16;55.99;101428.36;106694;1268;22771;-76
2022/03/14 06:41:39;;;;;;;70.10;28.20;;;;;;;-2.02;55.83;101425.61;106566;1268;22690;-76
2022/03/14 06:44:12;;;;;;;71.30;29.30;;;;;;;-1.90;55.88;101427.39;106511;1268;27988;-76
2022/03/14 06:46:44;;;;;;;73.50;29.70;;;;;;;-1.75;55.79;101429.11;106481;1268;23009;-76
2022/03/14 06:49:16;;;;;;;70.30;29.60;;;;;;;-1.64;55.87;101430.85;106520;1268;23212;-75
2022/03/14 06:51:48;;;;;;;72.60;30.10;;;;;;;-1.51;55.87;101437.70;106492;1268;22663;-75
2022/03/14 06:54:19;;;;;;;61.90;25.40;;;;;;;-1.36;55.60;101438.23;106536;1268;22683;-74
2022/03/14 06:56:50;;;;;;;62.00;24.40;;;;;;;-1.21;55.66;101438.61;106580;1268;22635;-74
2022/03/14 06:59:22;;;;;;;61.90;24.20;;;;;;;-1.09;55.64;101440.73;106552;1268;26785;-75
2022/03/14 07:01:53;;;;;;;65.30;22.00;;;;;;;-0.97;55.51;101444.73;106451;1268;22671;-75
2022/03/14 07:04:24;;;;;;;50.90;19.70;;;;;;;-0.85;55.06;101444.48;106509;1268;22753;-76
2022/03/14 07:06:56;;;;;;;45.70;17.80;;;;;;;-0.71;54.65;101442.47;106483;1268;22760;-76
2022/03/14 07:09:28;;;;;;;40.50;16.30;;;;;;;-0.51;54.35;101442.55;106571;1268;22683;-75
2022/03/14 07:12:00;;;;;;;38.90;14.60;;;;;;;-0.34;53.89;101446.80;106529;1268;22661;-75
2022/03/14 07:14:31;;;;;;;47.00;14.10;;;;;;;-0.20;53.44;101444.38;106583;1268;22800;-75
2022/03/14 07:17:03;;;;;;;38.00;14.00;;;;;;;-0.07;53.16;101446.30;106650;1268;23817;-75
2022/03/14 07:19:35;;;;;;;37.10;14.70;;;;;;;0.09;52.83;101444.96;106566;1268;24332;-75
2022/03/14 07:22:07;;;;;;;33.20;13.10;;;;;;;0.28;52.69;101444.02;106716;1268;24494;-75
2022/03/14 07:24:38;;;;;;;35.50;13.20;;;;;;;0.49;52.33;101445.20;106625;1268;22757;-75
2022/03/14 07:27:10;;;;;;;37.90;11.90;;;;;;;0.66;51.97;101449.02;106634;1268;22659;-76
2022/03/14 07:29:42;;;;;;;35.10;12.70;;;;;;;0.87;51.57;101446.70;106650;1267;24161;-75
2022/03/14 07:32:13;;;;;;;33.70;12.20;;;;;;;1.06;51.35;101444.68;106613;1268;22556;-76
2022/03/14 07:34:44;;;;;;;34.60;12.10;;;;;;;1.23;51.14;101449.87;106531;1267;26787;-76
2022/03/14 07:37:15;;;;;;;34.90;12.60;;;;;;;1.36;50.86;101446.70;106647;1268;24347;-76
2022/03/14 07:39:47;;;;;;;29.60;11.60;;;;;;;1.55;50.39;101446.70;106612;1268;23709;-75
2022/03/14 07:42:18;;;;;;;37.30;14.70;;;;;;;1.79;50.26;101441.56;106645;1268;22613;-76
2022/03/14 07:44:49;;;;;;;32.70;12.30;;;;;;;1.99;50.05;101444.43;106667;1268;22740;-76
2022/03/14 07:47:21;;;;;;;32.80;11.80;;;;;;;2.18;49.31;101441.45;106551;1267;22782;-76
2022/03/14 07:49:52;;;;;;;32.00;12.20;;;;;;;2.38;49.24;101442.47;106621;1268;22637;-75
2022/03/14 07:52:24;;;;;;;31.20;11.40;;;;;;;2.55;48.90;101445.55;106612;1268;22738;-76
2022/03/14 07:54:55;;;;;;;31.70;11.50;;;;;;;2.76;48.43;101448.27;106624;1268;24357;-76
2022/03/14 07:57:26;;;;;;;28.70;10.40;;;;;;;2.96;48.02;101449.09;106671;1268;24323;-76
2022/03/14 07:59:57;;;;;;;31.90;10.50;;;;;;;3.13;47.91;101450.45;106648;1268;22598;-76
2022/03/14 08:02:28;;;;;;;23.40;10.20;;;;;;;3.30;47.49;101452.60;106631;1268;22537;-76
2022/03/14 08:04:59;;;;;;;27.70;10.60;;;;;;;3.49;47.28;101451.58;106438;1268;25570;-76
2022/03/14 08:07:31;;;;;;;25.60;9.60;;;;;;;3.61;46.74;101450.58;106615;1268;25787;-76
2022/03/14 08:10:02;;;;;;;24.10;9.00;;;;;;;3.81;46.40;101454.02;106612;1268;23413;-76
2022/03/14 08:12:42;;;;;;;24.20;9.50;;;;;;;3.99;45.99;101454.13;107036;1268;22634;-76
2022/03/14 08:15:18;;;;;;;24.70;9.50;;;;;;;4.16;45.82;101451.16;106620;1268;25536;-76
2022/03/14 08:17:50;;;;;;;24.00;8.10;;;;;;;4.26;45.33;101447.21;106618;1268;25258;-76
2022/03/14 08:20:23;;;;;;;22.20;8.40;;;;;;;4.39;45.07;101446.09;106680;1268;22755;-76
2022/03/14 08:22:55;;;;;;;26.20;7.70;;;;;;;4.48;44.69;101444.51;106553;1268;25418;-76
2022/03/14 08:25:28;;;;;;;23.20;8.50;;;;;;;4.62;44.52;101442.33;106627;1268;23194;-76
2022/03/14 08:27:59;;;;;;;24.70;8.30;;;;;;;4.73;44.09;101445.30;106590;1268;24224;-76
2022/03/14 08:30:31;;;;;;;23.70;8.90;;;;;;;4.88;43.75;101444.91;106604;1268;22522;-77
2022/03/14 08:33:02;;;;;;;20.70;6.90;;;;;;;5.03;43.57;101449.17;106554;1268;22768;-76
2022/03/14 08:35:34;;;;;;;22.50;7.80;;;;;;;5.11;43.20;101454.86;106583;1268;25552;-76
2022/03/14 08:38:06;;;;;;;23.60;8.10;;;;;;;5.26;42.92;101452.70;106534;1268;24414;-76
2022/03/14 08:40:37;;;;;;;22.30;6.90;;;;;;;5.41;42.43;101450.32;106528;1268;25408;-77
2022/03/14 08:43:09;;;;;;;25.70;7.10;;;;;;;5.52;41.93;101449.86;106534;1268;23216;-77
2022/03/14 08:45:43;;;;;;;20.60;6.80;;;;;;;5.66;41.85;101451.16;106559;1268;22522;-77
2022/03/14 08:48:16;;;;;;;18.60;6.50;;;;;;;5.84;41.37;101449.90;106569;1268;22536;-76
2022/03/14 08:50:49;;;;;;;21.50;7.40;;;;;;;5.99;41.09;101446.92;106636;1268;22546;-77
2022/03/14 08:53:21;;;;;;;19.50;7.20;;;;;;;6.13;40.57;101448.55;106626;1268;24276;-77
2022/03/14 08:55:55;;;;;;;18.80;5.80;;;;;;;6.25;40.30;101444.55;106553;1268;22634;-76
2022/03/14 08:58:29;;;;;;;16.40;5.60;;;;;;;6.35;40.11;101439.41;106524;1268;22560;-77
2022/03/14 09:01:01;;;;;;;20.80;6.30;;;;;;;6.44;39.64;101437.88;106700;1268;24669;-76
2022/03/14 09:03:32;;;;;;;17.60;5.90;;;;;;;6.57;39.37;101436.73;106546;1268;25438;-76
2022/03/14 09:06:03;;;;;;;19.30;5.50;;;;;;;6.71;39.07;101430.99;106515;1268;24303;-76
2022/03/14 09:08:36;;;;;;;22.80;8.20;;;;;;;6.82;39.02;101429.70;106563;1268;22521;-77
2022/03/14 09:11:08;;;;;;;19.10;6.60;;;;;;;6.88;38.90;101428.86;106634;1268;24318;-77
2022/03/14 09:13:39;;;;;;;19.40;6.30;;;;;;;6.93;38.66;101424.00;106572;1268;22601;-77
2022/03/14 09:16:11;;;;;;;20.20;7.40;;;;;;;7.04;38.49;101424.12;106672;1268;22537;-78
2022/03/14 09:18:44;;;;;;;23.30;7.40;;;;;;;7.16;38.27;101421.41;106657;1268;23073;-77
2022/03/14 09:21:16;;;;;;;17.70;5.20;;;;;;;7.30;37.59;101422.46;106465;1268;23503;-77
2022/03/14 09:23:47;;;;;;;16.20;5.10;;;;;;;7.42;37.10;101423.50;106555;1268;22581;-77
2022/03/14 09:26:20;;;;;;;19.40;6.30;;;;;;;7.52;37.01;101426.06;106546;1268;22626;-77
2022/03/14 09:28:51;;;;;;;16.80;5.70;;;;;;;7.61;36.93;101423.15;106696;1268;25401;-77
2022/03/14 09:31:23;;;;;;;18.60;6.20;;;;;;;7.67;36.61;101423.34;106619;1268;22539;-77
2022/03/14 09:33:55;;;;;;;14.80;4.30;;;;;;;7.74;36.33;101424.55;106543;1268;22665;-77
2022/03/14 09:36:26;;;;;;;16.90;5.90;;;;;;;7.84;35.98;101423.75;106652;1268;22663;-77
2022/03/14 09:38:57;;;;;;;19.30;5.50;;;;;;;7.90;35.75;101425.04;106500;1268;22550;-77
2022/03/14 09:41:33;;;;;;;18.70;5.80;;;;;;;7.95;35.49;101420.56;106600;1268;22536;-77
2022/03/14 09:44:07;;;;;;;18.60;5.10;;;;;;;8.02;34.98;101419.92;106564;1268;22695;-77
2022/03/14 09:46:39;;;;;;;14.60;5.10;;;;;;;8.07;35.07;101414.64;106660;1268;25342;-77
2022/03/14 09:49:14;;;;;;;16.30;5.30;;;;;;;8.08;34.95;101410.78;106555;1267;24424;-77
2022/03/14 09:51:46;;;;;;;17.20;5.10;;;;;;;8.18;34.77;101420.72;106663;1268;22536;-77
2022/03/14 09:54:19;;;;;;;14.80;5.60;;;;;;;8.29;34.22;101414.86;106572;1267;25497;-77
2022/03/14 09:56:50;;;;;;;16.70;5.90;;;;;;;8.40;34.30;101414.90;106633;1268;24315;-76
2022/03/14 09:59:22;;;;;;;19.60;6.10;;;;;;;8.48;33.77;101414.35;106552;1268;24934;-76
2022/03/14 10:01:53;;;;;;;15.60;5.40;;;;;;;8.64;33.83;101413.95;106500;1268;26241;-77
2022/03/14 10:04:25;;;;;;;15.60;4.40;;;;;;;8.72;33.66;101413.17;106541;1268;24257;-77
2022/03/14 10:06:56;;;;;;;15.20;5.50;;;;;;;8.76;33.40;101409.96;106506;1268;25548;-77
2022/03/14 10:09:27;;;;;;;18.10;5.70;;;;;;;8.85;33.13;101408.45;106446;1268;22624;-77
2022/03/14 10:11:58;;;;;;;17.20;5.60;;;;;;;8.94;32.87;101408.91;106571;1268;22527;-77
2022/03/14 10:14:30;;;;;;;15.40;5.80;;;;;;;9.02;32.65;101408.30;106565;1268;24273;-77
2022/03/14 10:17:01;;;;;;;15.90;5.20;;;;;;;9.11;32.40;101411.23;106693;1268;22661;-77
2022/03/14 10:19:34;;;;;;;18.30;5.80;;;;;;;9.18;32.18;101401.56;106610;1268;23106;-77
2022/03/14 10:22:20;;;;;;;19.70;6.00;;;;;;;9.23;32.08;101406.59;106706;1268;24243;-77
2022/03/14 10:25:02;;;;;;;18.80;6.30;;;;;;;9.24;31.65;101401.63;106717;1268;24259;-77
2022/03/14 10:27:37;;;;;;;15.70;5.10;;;;;;;9.29;31.52;101404.17;106689;1268;22779;-77
2022/03/14 10:30:27;;;;;;;20.70;5.60;;;;;;;9.32;31.39;101400.35;106708;1268;22553;-77
2022/03/14 10:33:14;;;;;;;16.40;4.90;;;;;;;9.39;31.05;101399.73;106805;1268;24284;-78
2022/03/14 10:35:47;;;;;;;16.50;5.50;;;;;;;9.45;30.73;101403.23;106690;1268;25189;-77
2022/03/14 10:38:19;;;;;;;15.40;4.30;;;;;;;9.52;30.70;101405.23;106901;1268;22538;-78
2022/03/14 10:40:51;;;;;;;14.90;4.70;;;;;;;9.59;30.23;101406.48;106758;1268;22533;-78
2022/03/14 10:43:30;;;;;;;16.10;5.40;;;;;;;9.65;30.73;101403.97;106657;1270;22739;-78
2022/03/14 10:46:05;;;;;;;16.10;5.70;;;;;;;9.69;30.60;101406.18;106658;1268;22693;-77
2022/03/14 10:48:43;;;;;;;17.20;6.10;;;;;;;9.76;30.31;101411.77;106565;1268;22740;-78
2022/03/14 10:51:16;;;;;;;17.00;5.10;;;;;;;9.88;30.06;101408.61;106701;1268;24276;-77
2022/03/14 10:53:48;;;;;;;16.90;5.00;;;;;;;9.94;29.95;101407.14;106721;1268;24228;-77
2022/03/14 10:56:27;;;;;;;14.40;5.20;;;;;;;9.98;30.15;101405.81;106792;1268;24048;-76
2022/03/14 10:59:07;;;;;;;15.80;5.50;;;;;;;10.03;30.02;101401.04;106582;1270;24323;-77
2022/03/14 11:01:57;;;;;;;;;;;;;;;10.06;30.09;101395.61;106727;1268;24233;-77
2022/03/14 11:04:29;;;;;;;15.00;5.50;;;;;;;10.13;30.11;101391.17;106820;1267;22604;-77
2022/03/14 11:07:03;;;;;;;15.00;5.10;;;;;;;10.19;29.88;101386.58;106908;1268;23275;-77
2022/03/14 11:09:46;;;;;;;16.00;5.00;;;;;;;10.25;29.79;101389.15;106915;1268;22558;-77
2022/03/14 11:12:19;;;;;;;20.30;5.20;;;;;;;10.33;29.43;101385.48;106922;1268;24283;-77
2022/03/14 11:14:57;;;;;;;13.60;4.30;;;;;;;10.40;29.48;101386.33;106788;1268;22576;-77
2022/03/14 11:17:30;;;;;;;22.70;5.00;;;;;;;10.53;29.56;101390.54;106555;1268;25321;-77
2022/03/14 11:20:01;;;;;;;19.90;5.40;;;;;;;10.63;29.49;101387.88;106738;1268;24195;-77
2022/03/14 11:22:33;;;;;;;14.60;5.20;;;;;;;10.72;29.19;101380.30;106733;1266;25357;-77
2022/03/14 11:25:05;;;;;;;18.40;4.90;;;;;;;10.80;29.11;101380.81;106826;1268;22544;-77
2022/03/14 11:27:38;;;;;;;14.50;4.50;;;;;;;10.91;28.99;101376.69;106815;1268;22605;-76
2022/03/14 11:32:41;;;;;;;15.40;4.70;;;;;;;11.09;28.26;101375.05;106185;1257;85820;-54